Enon, Ohio
Current Conditions -  °F | °C
As of 3:56 AM on Wednesday 22 Oct 2014 (Local Time) from KSGH Reporting Station
Overcast Overcast  
Wind Chill: 38°   Ceiling: 1400
Heat Index: 44°   Visibility: 9mi
Dew Point: 40°   Wind: 12mph
Humidity: 86%   Direction: 360°N
Pressure: 30.2"   Gusts: NA
Location:  39.88°N, 83.94°W
Report Text: KSGH 220756Z AUTO 36010KT 9SM OVC014 07/04 A3020 RMK AO2 T00660044 SLP231
Loading
Personal Weather Stations






























Interactive Weather Map
Tropical Storm Tracking
New forecast layout! Learn more

10-Day Weather Forecast

Advertisements
Track Severe Weather on mobile